• Join FlightAware (Why Join?)
  • Login
  • US Flag 
03:18AM EDT


 

Airport Tracker/Info


-or-


 

Live Flight TrackerFlight Track Log ✈ ASQ4086 ✈ 29-Apr-2013 ✈ KIAH - KSAT

Flight Track Log - Related Links

Times and Time Zones

All times are in EDT time to prevent confusion due to time zone crossing. See the ASQ4086 flight status page for this flight to view local times or setup timezone preferences in your user account.

Time Position Orientation Groundspeed Altitude Reporting Facility
EDT Latitude Longitude Course Direction KTS MPH feet Rate Location/Type
11:02AM 29.8044 -95.8631 247° West  Level FlightAware Approximate
11:03AM 29.7667 -95.9680 270° West  Level FlightAware Approximate
11:04AM 29.7667 -96.0817 270° West  Level FlightAware Approximate
11:05AM 29.7667 -96.1954 270° West  Level FlightAware Approximate
11:06AM 29.7861 -96.3053 275° West  Level FlightAware Approximate
11:07AM 29.7942 -96.4186 275° West  Level FlightAware Approximate
11:08AM 29.8000 -96.5320 270° West  Level FlightAware Approximate
11:09AM 29.8087 -96.6451 277° West  Level FlightAware Approximate
11:10AM 29.8167 -96.7582 270° West  Level FlightAware Approximate
11:11AM 29.8167 -96.8719 270° West  Level FlightAware Approximate
11:12AM 29.8333 -96.9805 270° West  Level FlightAware Approximate
11:13AM 29.8361 -97.0940 277° West  Level FlightAware Approximate
11:14AM 29.8474 -97.2070 277° West  Level FlightAware Approximate
11:15AM 29.8509 -97.3204 286° West  Level FlightAware Approximate
11:16AM 29.8667 -97.4316 270° West  Level FlightAware Approximate
11:17AM 29.8742 -97.5450 274° West  Level FlightAware Approximate
11:18AM 29.8817 -97.6585 274° West  Level FlightAware Approximate
11:19AM 29.8834 -97.7722 270° West  Level FlightAware Approximate
11:20AM 29.8695 -97.8822 244° Southwest  Level FlightAware Approximate
11:21AM 29.8262 -97.9844 245° Southwest  Level FlightAware Approximate
11:22AM 29.7728 -98.0772 221° Southwest  Level FlightAware Approximate
11:23AM 29.6983 -98.1517 221° Southwest  Level FlightAware Approximate
11:24AM 29.6239 -98.2262 221° Southwest  Level FlightAware Approximate
11:25AM 29.5494 -98.3006 221° Southwest  Level FlightAware Approximate
11:26AM 29.4750 -98.3750 221° Southwest  Level FlightAware Approximate
11:27AM 29.4006 -98.4494 221° Southwest  Level FlightAware Approximate
11:28AM 29.3251 -98.5187 227° Southwest  Level FlightAware Approximate
11:29AM 29.3598 -98.5356 16° North  Level FlightAware Approximate
11:30AM 29.4412 -98.5002 19° North  Level FlightAware Approximate
11:31AM 29.5333 -98.4667 16° North  Level FlightAware Approximate
11:32AM 29.5340 -98.4691 16° North  Level Estimated
11:33AM 29.5333 -98.4667 16° North  Level FlightAware Approximate
11:34AM 29.5340 -98.4691 16° North  Level Estimated
11:35AM 29.5333 -98.4667 16° North  Level FlightAware Approximate
11:36AM 29.5340 -98.4691 16° North  Level Estimated
11:37AM 29.5333 -98.4667 16° North  Level FlightAware Approximate
11:38AM 29.5340 -98.4691 16° North  Level Estimated
11:39AM 29.5333 -98.4667 16° North  Level FlightAware Approximate
11:40AM 29.5340 -98.4691 16° North  Level Estimated